sensor_id;sensor_type;location;lat;lon;timestamp;pressure;altitude;pressure_sealevel;temperature;humidity
74594;BME280;63097;51.872;4.460;2023-05-23T00:01:43;102199.16;;;13.28;90.01
74594;BME280;63097;51.872;4.460;2023-05-23T00:04:08;102205.78;;;13.15;90.42
74594;BME280;63097;51.872;4.460;2023-05-23T00:06:34;102202.81;;;13.28;90.02
74594;BME280;63097;51.872;4.460;2023-05-23T00:08:59;102206.41;;;13.17;90.42
74594;BME280;63097;51.872;4.460;2023-05-23T00:11:25;102198.69;;;13.31;90.04
74594;BME280;63097;51.872;4.460;2023-05-23T00:13:50;102202.91;;;13.22;90.44
74594;BME280;63097;51.872;4.460;2023-05-23T00:16:15;102205.22;;;13.25;90.77
74594;BME280;63097;51.872;4.460;2023-05-23T00:18:40;102215.47;;;13.31;90.49
74594;BME280;63097;51.872;4.460;2023-05-23T00:21:06;102202.84;;;13.40;90.24
74594;BME280;63097;51.872;4.460;2023-05-23T00:23:31;102209.75;;;13.37;90.33
74594;BME280;63097;51.872;4.460;2023-05-23T00:25:56;102204.69;;;13.46;90.14
74594;BME280;63097;51.872;4.460;2023-05-23T00:28:22;102207.69;;;13.44;90.19
74594;BME280;63097;51.872;4.460;2023-05-23T00:30:47;102203.97;;;13.50;90.05
74594;BME280;63097;51.872;4.460;2023-05-23T00:33:13;102208.44;;;13.40;90.48
74594;BME280;63097;51.872;4.460;2023-05-23T00:35:38;102202.13;;;13.44;90.13
74594;BME280;63097;51.872;4.460;2023-05-23T00:38:04;102212.72;;;13.42;90.63
74594;BME280;63097;51.872;4.460;2023-05-23T00:40:29;102217.88;;;13.27;90.64
74594;BME280;63097;51.872;4.460;2023-05-23T00:42:54;102221.66;;;13.33;91.13
74594;BME280;63097;51.872;4.460;2023-05-23T00:45:20;102228.88;;;13.40;90.61
74594;BME280;63097;51.872;4.460;2023-05-23T00:47:45;102219.38;;;13.41;90.20
74594;BME280;63097;51.872;4.460;2023-05-23T00:50:13;102221.41;;;13.34;90.87
74594;BME280;63097;51.872;4.460;2023-05-23T00:52:40;102229.06;;;13.39;90.87
74594;BME280;63097;51.872;4.460;2023-05-23T00:55:06;102226.19;;;13.45;90.61
74594;BME280;63097;51.872;4.460;2023-05-23T00:57:31;102222.91;;;13.37;91.10
74594;BME280;63097;51.872;4.460;2023-05-23T00:59:57;102228.06;;;13.51;90.73
74594;BME280;63097;51.872;4.460;2023-05-23T01:02:22;102224.66;;;13.61;90.94
74594;BME280;63097;51.872;4.460;2023-05-23T01:04:50;102227.44;;;13.61;90.65
74594;BME280;63097;51.872;4.460;2023-05-23T01:07:16;102213.22;;;13.51;91.06
74594;BME280;63097;51.872;4.460;2023-05-23T01:09:41;102222.47;;;13.51;91.40
74594;BME280;63097;51.872;4.460;2023-05-23T01:15:18;102220.97;;;13.49;90.44
74594;BME280;63097;51.872;4.460;2023-05-23T01:17:51;102221.50;;;13.69;89.58
74594;BME280;63097;51.872;4.460;2023-05-23T01:20:21;102220.19;;;13.71;89.21
74594;BME280;63097;51.872;4.460;2023-05-23T01:25:57;102226.16;;;13.75;88.59
74594;BME280;63097;51.872;4.460;2023-05-23T01:28:30;102218.63;;;13.87;88.34
74594;BME280;63097;51.872;4.460;2023-05-23T01:30:57;102213.63;;;13.77;88.42
74594;BME280;63097;51.872;4.460;2023-05-23T01:33:24;102233.59;;;13.92;87.94
74594;BME280;63097;51.872;4.460;2023-05-23T01:35:50;102219.00;;;13.79;88.21
74594;BME280;63097;51.872;4.460;2023-05-23T01:38:15;102237.69;;;13.67;88.46
74594;BME280;63097;51.872;4.460;2023-05-23T01:40:40;102233.81;;;13.79;87.40
74594;BME280;63097;51.872;4.460;2023-05-23T01:43:06;102231.59;;;13.70;87.53
74594;BME280;63097;51.872;4.460;2023-05-23T01:45:32;102232.59;;;13.75;87.29
74594;BME280;63097;51.872;4.460;2023-05-23T01:47:57;102236.59;;;13.79;86.28
74594;BME280;63097;51.872;4.460;2023-05-23T01:50:23;102233.34;;;13.82;85.83
74594;BME280;63097;51.872;4.460;2023-05-23T01:52:49;102238.34;;;13.80;85.93
74594;BME280;63097;51.872;4.460;2023-05-23T01:55:16;102233.94;;;13.73;86.24
74594;BME280;63097;51.872;4.460;2023-05-23T01:57:45;102247.09;;;13.84;85.19
74594;BME280;63097;51.872;4.460;2023-05-23T02:00:11;102233.56;;;13.81;84.70
74594;BME280;63097;51.872;4.460;2023-05-23T02:02:37;102237.22;;;13.81;84.27
74594;BME280;63097;51.872;4.460;2023-05-23T02:05:02;102243.91;;;13.80;84.52
74594;BME280;63097;51.872;4.460;2023-05-23T02:07:28;102241.38;;;13.79;84.84
74594;BME280;63097;51.872;4.460;2023-05-23T02:09:54;102244.63;;;13.76;84.59
74594;BME280;63097;51.872;4.460;2023-05-23T02:12:19;102245.50;;;13.76;84.61
74594;BME280;63097;51.872;4.460;2023-05-23T02:14:45;102246.72;;;13.80;83.90
74594;BME280;63097;51.872;4.460;2023-05-23T02:17:10;102247.56;;;13.92;83.85
74594;BME280;63097;51.872;4.460;2023-05-23T02:19:35;102245.59;;;13.81;83.92
74594;BME280;63097;51.872;4.460;2023-05-23T02:22:01;102245.72;;;13.75;84.17
74594;BME280;63097;51.872;4.460;2023-05-23T02:24:26;102249.34;;;13.64;84.63
74594;BME280;63097;51.872;4.460;2023-05-23T02:26:53;102255.06;;;13.69;84.46
74594;BME280;63097;51.872;4.460;2023-05-23T02:29:18;102245.50;;;13.76;84.21
74594;BME280;63097;51.872;4.460;2023-05-23T02:31:44;102254.50;;;13.90;83.93
74594;BME280;63097;51.872;4.460;2023-05-23T02:34:09;102260.94;;;13.79;84.16
74594;BME280;63097;51.872;4.460;2023-05-23T02:36:34;102262.41;;;13.81;84.38
74594;BME280;63097;51.872;4.460;2023-05-23T02:38:59;102270.53;;;13.83;83.42
74594;BME280;63097;51.872;4.460;2023-05-23T02:41:25;102273.81;;;13.80;83.50
74594;BME280;63097;51.872;4.460;2023-05-23T02:43:50;102270.28;;;13.73;83.52
74594;BME280;63097;51.872;4.460;2023-05-23T02:46:15;102275.38;;;13.76;82.92
74594;BME280;63097;51.872;4.460;2023-05-23T02:48:41;102287.94;;;13.85;82.43
74594;BME280;63097;51.872;4.460;2023-05-23T02:51:06;102275.56;;;13.92;81.98
74594;BME280;63097;51.872;4.460;2023-05-23T02:53:31;102283.41;;;13.72;82.59
74594;BME280;63097;51.872;4.460;2023-05-23T02:55:57;102278.63;;;13.61;82.87
74594;BME280;63097;51.872;4.460;2023-05-23T02:58:22;102283.84;;;13.58;83.16
74594;BME280;63097;51.872;4.460;2023-05-23T03:00:47;102283.22;;;13.56;83.23
74594;BME280;63097;51.872;4.460;2023-05-23T03:03:13;102289.94;;;13.55;83.26
74594;BME280;63097;51.872;4.460;2023-05-23T03:05:38;102295.66;;;13.60;83.12
74594;BME280;63097;51.872;4.460;2023-05-23T03:08:03;102293.66;;;13.49;83.17
74594;BME280;63097;51.872;4.460;2023-05-23T03:10:29;102300.88;;;13.56;82.59
74594;BME280;63097;51.872;4.460;2023-05-23T03:12:54;102284.84;;;13.63;82.38
74594;BME280;63097;51.872;4.460;2023-05-23T03:15:19;102282.28;;;13.32;82.96
74594;BME280;63097;51.872;4.460;2023-05-23T03:17:45;102282.59;;;13.42;82.27
74594;BME280;63097;51.872;4.460;2023-05-23T03:20:10;102290.66;;;13.32;82.41
74594;BME280;63097;51.872;4.460;2023-05-23T03:22:35;102290.66;;;13.32;82.85
74594;BME280;63097;51.872;4.460;2023-05-23T03:25:01;102291.22;;;13.23;83.04
74594;BME280;63097;51.872;4.460;2023-05-23T03:27:26;102294.34;;;13.44;82.42
74594;BME280;63097;51.872;4.460;2023-05-23T03:29:52;102287.78;;;13.39;82.64
74594;BME280;63097;51.872;4.460;2023-05-23T03:32:17;102288.50;;;13.34;83.32
74594;BME280;63097;51.872;4.460;2023-05-23T03:34:42;102298.81;;;13.34;83.36
74594;BME280;63097;51.872;4.460;2023-05-23T03:37:08;102294.78;;;13.48;82.80
74594;BME280;63097;51.872;4.460;2023-05-23T03:39:33;102294.72;;;13.36;82.47
74594;BME280;63097;51.872;4.460;2023-05-23T03:41:58;102303.38;;;13.17;82.58
74594;BME280;63097;51.872;4.460;2023-05-23T03:44:23;102303.44;;;13.10;82.56
74594;BME280;63097;51.872;4.460;2023-05-23T03:46:49;102294.97;;;13.17;82.55
74594;BME280;63097;51.872;4.460;2023-05-23T03:49:14;102309.50;;;13.07;82.33
74594;BME280;63097;51.872;4.460;2023-05-23T03:51:39;102307.38;;;13.02;82.13
74594;BME280;63097;51.872;4.460;2023-05-23T03:54:05;102307.47;;;13.14;81.28
74594;BME280;63097;51.872;4.460;2023-05-23T03:56:30;102313.53;;;13.11;81.43
74594;BME280;63097;51.872;4.460;2023-05-23T03:58:55;102321.91;;;13.11;81.35
74594;BME280;63097;51.872;4.460;2023-05-23T04:01:21;102327.03;;;13.14;80.67
74594;BME280;63097;51.872;4.460;2023-05-23T04:03:46;102318.13;;;13.05;80.75
74594;BME280;63097;51.872;4.460;2023-05-23T04:06:11;102320.19;;;13.10;80.70
74594;BME280;63097;51.872;4.460;2023-05-23T04:08:37;102327.94;;;13.08;80.61
74594;BME280;63097;51.872;4.460;2023-05-23T04:11:02;102335.66;;;13.13;80.44
74594;BME280;63097;51.872;4.460;2023-05-23T04:13:27;102337.28;;;13.20;79.11
74594;BME280;63097;51.872;4.460;2023-05-23T04:15:53;102332.13;;;12.99;78.94
74594;BME280;63097;51.872;4.460;2023-05-23T04:18:18;102347.38;;;12.78;78.85
74594;BME280;63097;51.872;4.460;2023-05-23T04:20:44;102345.56;;;12.66;78.98
74594;BME280;63097;51.872;4.460;2023-05-23T04:23:10;102337.38;;;12.71;78.59
74594;BME280;63097;51.872;4.460;2023-05-23T04:25:35;102343.38;;;12.74;78.68
74594;BME280;63097;51.872;4.460;2023-05-23T04:28:00;102351.41;;;12.82;78.37
74594;BME280;63097;51.872;4.460;2023-05-23T04:30:26;102349.09;;;12.79;78.18
74594;BME280;63097;51.872;4.460;2023-05-23T04:32:51;102349.25;;;12.84;77.91
74594;BME280;63097;51.872;4.460;2023-05-23T04:35:16;102362.94;;;12.92;77.94
74594;BME280;63097;51.872;4.460;2023-05-23T04:37:42;102358.09;;;12.81;78.87
74594;BME280;63097;51.872;4.460;2023-05-23T04:40:07;102361.06;;;12.86;78.39
74594;BME280;63097;51.872;4.460;2023-05-23T04:42:33;102356.25;;;12.93;77.85
74594;BME280;63097;51.872;4.460;2023-05-23T04:44:58;102367.88;;;12.72;77.36
74594;BME280;63097;51.872;4.460;2023-05-23T04:47:23;102369.56;;;12.73;77.22
74594;BME280;63097;51.872;4.460;2023-05-23T04:49:49;102368.69;;;12.73;76.93
74594;BME280;63097;51.872;4.460;2023-05-23T04:52:14;102374.72;;;12.94;76.63
74594;BME280;63097;51.872;4.460;2023-05-23T04:54:40;102375.13;;;12.98;76.14
74594;BME280;63097;51.872;4.460;2023-05-23T04:57:05;102379.84;;;12.97;76.64
74594;BME280;63097;51.872;4.460;2023-05-23T04:59:30;102367.41;;;12.93;77.35
74594;BME280;63097;51.872;4.460;2023-05-23T05:01:56;102380.31;;;12.94;77.53
74594;BME280;63097;51.872;4.460;2023-05-23T05:04:21;102378.28;;;13.01;77.74
74594;BME280;63097;51.872;4.460;2023-05-23T05:06:46;102388.88;;;13.18;76.74
74594;BME280;63097;51.872;4.460;2023-05-23T05:09:12;102392.09;;;12.96;76.04
74594;BME280;63097;51.872;4.460;2023-05-23T05:11:37;102385.81;;;13.01;74.83
74594;BME280;63097;51.872;4.460;2023-05-23T05:14:02;102387.34;;;12.97;74.70
74594;BME280;63097;51.872;4.460;2023-05-23T05:16:28;102400.19;;;13.04;74.69
74594;BME280;63097;51.872;4.460;2023-05-23T05:18:53;102397.25;;;13.18;74.38
74594;BME280;63097;51.872;4.460;2023-05-23T05:21:18;102388.34;;;13.09;74.88
74594;BME280;63097;51.872;4.460;2023-05-23T05:23:43;102396.72;;;13.09;74.63
74594;BME280;63097;51.872;4.460;2023-05-23T05:26:09;102407.03;;;13.27;74.86
74594;BME280;63097;51.872;4.460;2023-05-23T05:28:34;102410.38;;;13.17;75.37
74594;BME280;63097;51.872;4.460;2023-05-23T05:30:59;102407.75;;;13.22;nan
74594;BME280;63097;51.872;4.460;2023-05-23T05:33:25;102417.94;;;13.17;72.95
74594;BME280;63097;51.872;4.460;2023-05-23T05:35:50;102415.91;;;12.99;72.60
74594;BME280;63097;51.872;4.460;2023-05-23T05:38:16;102420.31;;;12.88;73.04
74594;BME280;63097;51.872;4.460;2023-05-23T05:40:41;102422.22;;;12.94;72.60
74594;BME280;63097;51.872;4.460;2023-05-23T05:43:06;102409.91;;;12.77;72.20
74594;BME280;63097;51.872;4.460;2023-05-23T05:45:32;102421.59;;;12.92;72.60
74594;BME280;63097;51.872;4.460;2023-05-23T05:47:57;102425.34;;;13.04;72.32
74594;BME280;63097;51.872;4.460;2023-05-23T05:50:23;102429.41;;;13.02;72.73
74594;BME280;63097;51.872;4.460;2023-05-23T05:52:48;102426.63;;;13.02;73.23
74594;BME280;63097;51.872;4.460;2023-05-23T05:55:13;102434.81;;;13.03;73.68
74594;BME280;63097;51.872;4.460;2023-05-23T05:57:39;102440.13;;;12.87;74.79
74594;BME280;63097;51.872;4.460;2023-05-23T06:00:12;102433.09;;;13.02;74.54
74594;BME280;63097;51.872;4.460;2023-05-23T06:02:38;102432.13;;;12.90;74.84
74594;BME280;63097;51.872;4.460;2023-05-23T06:05:05;102432.28;;;12.95;75.54
74594;BME280;63097;51.872;4.460;2023-05-23T06:07:30;102428.44;;;12.96;75.55
74594;BME280;63097;51.872;4.460;2023-05-23T06:09:55;102440.44;;;12.97;76.17
74594;BME280;63097;51.872;4.460;2023-05-23T06:12:21;102436.34;;;12.99;76.02
74594;BME280;63097;51.872;4.460;2023-05-23T06:14:46;102437.41;;;12.98;76.19
74594;BME280;63097;51.872;4.460;2023-05-23T06:17:11;102444.31;;;12.96;76.96
74594;BME280;63097;51.872;4.460;2023-05-23T06:19:37;102446.13;;;12.84;77.44
74594;BME280;63097;51.872;4.460;2023-05-23T06:22:02;102455.84;;;13.06;76.71
74594;BME280;63097;51.872;4.460;2023-05-23T06:24:27;102455.53;;;12.89;76.94
74594;BME280;63097;51.872;4.460;2023-05-23T06:26:53;102451.88;;;12.71;77.45
74594;BME280;63097;51.872;4.460;2023-05-23T06:29:18;102453.44;;;12.85;77.70
74594;BME280;63097;51.872;4.460;2023-05-23T06:31:43;102469.09;;;12.86;77.99
74594;BME280;63097;51.872;4.460;2023-05-23T06:34:09;102470.84;;;12.87;77.97
74594;BME280;63097;51.872;4.460;2023-05-23T06:36:34;102468.19;;;12.92;77.19
74594;BME280;63097;51.872;4.460;2023-05-23T06:38:59;102461.34;;;12.88;76.70
74594;BME280;63097;51.872;4.460;2023-05-23T06:41:25;102463.72;;;12.91;77.28
74594;BME280;63097;51.872;4.460;2023-05-23T06:43:50;102464.03;;;13.01;76.84
74594;BME280;63097;51.872;4.460;2023-05-23T06:46:15;102469.91;;;12.93;77.78
74594;BME280;63097;51.872;4.460;2023-05-23T06:48:40;102471.38;;;12.95;77.86
74594;BME280;63097;51.872;4.460;2023-05-23T06:51:06;102475.19;;;13.01;77.54
74594;BME280;63097;51.872;4.460;2023-05-23T06:53:31;102472.88;;;12.98;76.79
74594;BME280;63097;51.872;4.460;2023-05-23T06:55:56;102475.31;;;12.88;76.66
74594;BME280;63097;51.872;4.460;2023-05-23T06:58:22;102473.44;;;12.82;76.51
74594;BME280;63097;51.872;4.460;2023-05-23T07:00:47;102481.66;;;12.77;77.25
74594;BME280;63097;51.872;4.460;2023-05-23T07:03:12;102477.56;;;12.79;77.01
74594;BME280;63097;51.872;4.460;2023-05-23T07:05:37;102480.88;;;12.94;76.70
74594;BME280;63097;51.872;4.460;2023-05-23T07:08:03;102482.00;;;13.11;75.40
74594;BME280;63097;51.872;4.460;2023-05-23T07:10:28;102470.38;;;13.15;75.20
74594;BME280;63097;51.872;4.460;2023-05-23T07:12:53;102483.03;;;13.17;74.80
74594;BME280;63097;51.872;4.460;2023-05-23T07:15:19;102489.44;;;13.42;73.52
74594;BME280;63097;51.872;4.460;2023-05-23T07:17:44;102488.56;;;13.78;72.12
74594;BME280;63097;51.872;4.460;2023-05-23T07:20:10;102489.72;;;13.88;70.80
74594;BME280;63097;51.872;4.460;2023-05-23T07:22:35;102485.41;;;14.22;69.55
74594;BME280;63097;51.872;4.460;2023-05-23T07:25:01;102488.91;;;14.88;67.14
74594;BME280;63097;51.872;4.460;2023-05-23T07:27:27;102477.19;;;15.72;64.44
74594;BME280;63097;51.872;4.460;2023-05-23T07:29:53;102481.69;;;16.41;61.69
74594;BME280;63097;51.872;4.460;2023-05-23T07:32:18;102486.09;;;16.37;60.10
74594;BME280;63097;51.872;4.460;2023-05-23T07:34:43;102485.81;;;16.50;59.31
74594;BME280;63097;51.872;4.460;2023-05-23T07:37:09;102488.16;;;16.53;59.20
74594;BME280;63097;51.872;4.460;2023-05-23T07:39:34;102482.19;;;17.16;56.90
74594;BME280;63097;51.872;4.460;2023-05-23T07:41:59;102496.09;;;16.89;56.95
74594;BME280;63097;51.872;4.460;2023-05-23T07:44:25;102489.69;;;17.10;55.13
74594;BME280;63097;51.872;4.460;2023-05-23T07:46:50;102498.31;;;16.87;56.58
74594;BME280;63097;51.872;4.460;2023-05-23T07:49:15;102496.00;;;16.68;56.03
74594;BME280;63097;51.872;4.460;2023-05-23T07:51:41;102497.00;;;16.05;57.45
74594;BME280;63097;51.872;4.460;2023-05-23T07:54:06;102502.03;;;15.92;58.22
74594;BME280;63097;51.872;4.460;2023-05-23T07:56:31;102496.81;;;15.84;57.69
74594;BME280;63097;51.872;4.460;2023-05-23T07:58:57;102506.84;;;15.34;58.58
74594;BME280;63097;51.872;4.460;2023-05-23T08:01:22;102505.72;;;15.00;60.28
74594;BME280;63097;51.872;4.460;2023-05-23T08:03:47;102504.50;;;15.07;60.78
74594;BME280;63097;51.872;4.460;2023-05-23T08:06:13;102514.25;;;15.17;60.25
74594;BME280;63097;51.872;4.460;2023-05-23T08:08:38;102513.13;;;14.83;60.25
74594;BME280;63097;51.872;4.460;2023-05-23T08:11:03;102508.19;;;15.20;59.93
74594;BME280;63097;51.872;4.460;2023-05-23T08:13:30;102503.16;;;15.33;58.72
74594;BME280;63097;51.872;4.460;2023-05-23T08:15:55;102511.13;;;15.59;58.75
74594;BME280;63097;51.872;4.460;2023-05-23T08:18:20;102506.22;;;15.78;57.11
74594;BME280;63097;51.872;4.460;2023-05-23T08:20:46;102515.41;;;15.50;58.19
74594;BME280;63097;51.872;4.460;2023-05-23T08:23:11;102519.88;;;15.74;58.52
74594;BME280;63097;51.872;4.460;2023-05-23T08:25:37;102520.78;;;16.03;57.60
74594;BME280;63097;51.872;4.460;2023-05-23T08:28:02;102527.25;;;16.03;57.78
74594;BME280;63097;51.872;4.460;2023-05-23T08:30:28;102518.97;;;15.97;57.79
74594;BME280;63097;51.872;4.460;2023-05-23T08:32:54;102525.41;;;16.09;57.70
74594;BME280;63097;51.872;4.460;2023-05-23T08:35:20;102527.78;;;17.01;55.90
74594;BME280;63097;51.872;4.460;2023-05-23T08:37:46;102533.94;;;17.32;53.86
74594;BME280;63097;51.872;4.460;2023-05-23T08:40:19;102524.31;;;17.82;52.35
74594;BME280;63097;51.872;4.460;2023-05-23T08:42:49;102529.84;;;17.56;52.92
74594;BME280;63097;51.872;4.460;2023-05-23T08:45:15;102535.53;;;17.11;54.13
74594;BME280;63097;51.872;4.460;2023-05-23T08:47:42;102529.34;;;16.36;56.20
74594;BME280;63097;51.872;4.460;2023-05-23T08:50:10;102532.63;;;16.89;54.83
74594;BME280;63097;51.872;4.460;2023-05-23T08:52:41;102530.53;;;16.52;55.63
74594;BME280;63097;51.872;4.460;2023-05-23T08:55:08;102534.34;;;16.34;56.15
74594;BME280;63097;51.872;4.460;2023-05-23T08:57:34;102531.00;;;16.21;56.98
74594;BME280;63097;51.872;4.460;2023-05-23T09:00:00;102547.06;;;16.37;55.09
74594;BME280;63097;51.872;4.460;2023-05-23T09:02:26;102539.06;;;16.57;55.58
74594;BME280;63097;51.872;4.460;2023-05-23T09:04:51;102547.22;;;17.36;53.19
74594;BME280;63097;51.872;4.460;2023-05-23T09:07:17;102550.22;;;17.63;52.39
74594;BME280;63097;51.872;4.460;2023-05-23T09:09:43;102561.97;;;17.43;52.85
74594;BME280;63097;51.872;4.460;2023-05-23T09:12:09;102542.63;;;17.14;52.42
74594;BME280;63097;51.872;4.460;2023-05-23T09:14:34;102555.34;;;16.71;53.65
74594;BME280;63097;51.872;4.460;2023-05-23T09:17:00;102552.94;;;16.63;54.03
74594;BME280;63097;51.872;4.460;2023-05-23T09:19:26;102557.63;;;17.19;53.78
74594;BME280;63097;51.872;4.460;2023-05-23T09:21:53;102557.84;;;17.67;52.97
74594;BME280;63097;51.872;4.460;2023-05-23T09:24:18;102566.81;;;18.24;50.41
74594;BME280;63097;51.872;4.460;2023-05-23T09:26:46;102570.16;;;17.61;50.82
74594;BME280;63097;51.872;4.460;2023-05-23T09:29:11;102564.66;;;17.88;49.38
74594;BME280;63097;51.872;4.460;2023-05-23T09:31:36;102567.50;;;18.31;50.05
74594;BME280;63097;51.872;4.460;2023-05-23T09:34:02;102566.50;;;18.42;48.96
74594;BME280;63097;51.872;4.460;2023-05-23T09:36:28;102568.28;;;18.48;49.46
74594;BME280;63097;51.872;4.460;2023-05-23T09:38:54;102569.69;;;18.07;49.51
74594;BME280;63097;51.872;4.460;2023-05-23T09:41:19;102564.91;;;17.86;49.95
74594;BME280;63097;51.872;4.460;2023-05-23T09:43:52;102568.72;;;17.97;50.13
74594;BME280;63097;51.872;4.460;2023-05-23T09:46:19;102576.41;;;18.45;49.26
74594;BME280;63097;51.872;4.460;2023-05-23T09:48:49;102560.34;;;18.93;47.83
74594;BME280;63097;51.872;4.460;2023-05-23T09:51:17;102568.53;;;18.68;47.73
74594;BME280;63097;51.872;4.460;2023-05-23T09:53:43;102568.84;;;19.30;46.22
74594;BME280;63097;51.872;4.460;2023-05-23T09:56:09;102574.16;;;19.53;45.31
74594;BME280;63097;51.872;4.460;2023-05-23T09:58:35;102568.25;;;19.55;45.73
74594;BME280;63097;51.872;4.460;2023-05-23T10:01:03;102565.53;;;19.70;46.01
74594;BME280;63097;51.872;4.460;2023-05-23T10:03:36;102578.91;;;19.84;45.59
74594;BME280;63097;51.872;4.460;2023-05-23T10:06:09;102582.03;;;19.93;46.38
74594;BME280;63097;51.872;4.460;2023-05-23T10:08:40;102584.25;;;20.28;44.06
74594;BME280;63097;51.872;4.460;2023-05-23T10:14:02;102581.44;;;20.33;43.42
74594;BME280;63097;51.872;4.460;2023-05-23T10:22:08;102590.56;;;18.50;48.03
74594;BME280;63097;51.872;4.460;2023-05-23T10:24:35;102580.78;;;18.36;48.14
74594;BME280;63097;51.872;4.460;2023-05-23T10:27:01;102589.47;;;18.77;47.98
74594;BME280;63097;51.872;4.460;2023-05-23T10:29:28;102590.09;;;19.06;47.12
74594;BME280;63097;51.872;4.460;2023-05-23T10:31:54;102590.06;;;19.33;46.63
74594;BME280;63097;51.872;4.460;2023-05-23T10:34:31;102588.88;;;20.49;43.53
74594;BME280;63097;51.872;4.460;2023-05-23T10:45:23;102596.06;;;19.41;43.58
74594;BME280;63097;51.872;4.460;2023-05-23T10:47:50;102590.47;;;19.20;44.02
74594;BME280;63097;51.872;4.460;2023-05-23T10:50:31;102595.81;;;18.63;46.75
74594;BME280;63097;51.872;4.460;2023-05-23T10:52:56;102598.16;;;18.71;46.26
74594;BME280;63097;51.872;4.460;2023-05-23T10:55:22;102596.06;;;18.61;47.42
74594;BME280;63097;51.872;4.460;2023-05-23T10:58:11;102598.41;;;18.26;48.71
74594;BME280;63097;51.872;4.460;2023-05-23T11:00:37;102604.81;;;18.00;49.60
74594;BME280;63097;51.872;4.460;2023-05-23T11:03:04;102603.56;;;17.08;51.50
74594;BME280;63097;51.872;4.460;2023-05-23T11:05:31;102611.19;;;17.74;50.86
74594;BME280;63097;51.872;4.460;2023-05-23T11:08:09;102605.00;;;19.06;48.26
74594;BME280;63097;51.872;4.460;2023-05-23T11:13:16;102600.41;;;21.34;41.65
74594;BME280;63097;51.872;4.460;2023-05-23T11:15:42;102596.72;;;21.84;40.59
74594;BME280;63097;51.872;4.460;2023-05-23T11:18:07;102604.91;;;21.15;41.75
74594;BME280;63097;51.872;4.460;2023-05-23T11:20:33;102606.94;;;21.50;40.94
74594;BME280;63097;51.872;4.460;2023-05-23T11:23:04;102601.94;;;20.70;41.58
74594;BME280;63097;51.872;4.460;2023-05-23T11:25:44;102606.63;;;21.41;40.97
74594;BME280;63097;51.872;4.460;2023-05-23T11:28:11;102607.69;;;22.21;40.10
74594;BME280;63097;51.872;4.460;2023-05-23T11:30:37;102608.59;;;21.11;41.87
74594;BME280;63097;51.872;4.460;2023-05-23T11:33:10;102614.84;;;21.48;39.78
74594;BME280;63097;51.872;4.460;2023-05-23T11:35:36;102621.91;;;21.50;39.24
74594;BME280;63097;51.872;4.460;2023-05-23T11:38:03;102614.25;;;21.16;41.51
74594;BME280;63097;51.872;4.460;2023-05-23T11:40:33;102624.06;;;22.39;36.89
74594;BME280;63097;51.872;4.460;2023-05-23T11:43:00;102621.50;;;23.06;35.93
74594;BME280;63097;51.872;4.460;2023-05-23T11:45:27;102621.19;;;23.08;35.80
74594;BME280;63097;51.872;4.460;2023-05-23T11:47:53;102611.59;;;23.76;34.92
74594;BME280;63097;51.872;4.460;2023-05-23T11:50:19;102619.41;;;22.73;35.96
74594;BME280;63097;51.872;4.460;2023-05-23T11:52:44;102608.47;;;23.05;35.92
74594;BME280;63097;51.872;4.460;2023-05-23T11:55:10;102609.16;;;23.31;35.30
74594;BME280;63097;51.872;4.460;2023-05-23T11:57:38;102620.75;;;22.02;35.79
74594;BME280;63097;51.872;4.460;2023-05-23T12:00:07;102617.09;;;21.96;37.72
74594;BME280;63097;51.872;4.460;2023-05-23T12:02:37;102604.53;;;22.27;36.02
74594;BME280;63097;51.872;4.460;2023-05-23T12:05:09;102610.69;;;22.49;35.78
74594;BME280;63097;51.872;4.460;2023-05-23T12:07:35;102614.81;;;21.98;37.02
74594;BME280;63097;51.872;4.460;2023-05-23T12:10:00;102624.56;;;22.66;36.56
74594;BME280;63097;51.872;4.460;2023-05-23T12:12:25;102618.41;;;22.39;37.02
74594;BME280;63097;51.872;4.460;2023-05-23T12:14:55;102621.97;;;23.62;34.98
74594;BME280;63097;51.872;4.460;2023-05-23T12:17:20;102611.47;;;21.61;38.76
74594;BME280;63097;51.872;4.460;2023-05-23T12:19:45;102616.06;;;22.51;37.54
74594;BME280;63097;51.872;4.460;2023-05-23T12:22:11;102612.59;;;23.61;34.95
74594;BME280;63097;51.872;4.460;2023-05-23T12:24:44;102617.34;;;22.88;35.40
74594;BME280;63097;51.872;4.460;2023-05-23T12:27:09;102623.81;;;24.57;32.08
74594;BME280;63097;51.872;4.460;2023-05-23T12:29:35;102617.94;;;23.97;32.51
74594;BME280;63097;51.872;4.460;2023-05-23T12:32:02;102616.78;;;23.35;33.66
74594;BME280;63097;51.872;4.460;2023-05-23T12:34:27;102616.59;;;22.68;34.90
74594;BME280;63097;51.872;4.460;2023-05-23T12:36:56;102618.34;;;24.14;33.10
74594;BME280;63097;51.872;4.460;2023-05-23T12:39:26;102619.81;;;25.01;31.54
74594;BME280;63097;51.872;4.460;2023-05-23T12:41:53;102622.53;;;24.45;32.67
74594;BME280;63097;51.872;4.460;2023-05-23T12:44:18;102613.94;;;24.26;33.33
74594;BME280;63097;51.872;4.460;2023-05-23T12:46:43;102609.81;;;23.13;35.92
74594;BME280;63097;51.872;4.460;2023-05-23T12:49:09;102622.09;;;22.34;37.97
74594;BME280;63097;51.872;4.460;2023-05-23T12:51:35;102611.94;;;23.36;35.35
74594;BME280;63097;51.872;4.460;2023-05-23T12:54:00;102597.53;;;24.42;34.65
74594;BME280;63097;51.872;4.460;2023-05-23T12:56:26;102607.34;;;24.97;32.10
74594;BME280;63097;51.872;4.460;2023-05-23T12:58:51;102602.50;;;23.74;33.58
74594;BME280;63097;51.872;4.460;2023-05-23T13:01:16;102624.59;;;22.51;37.19
74594;BME280;63097;51.872;4.460;2023-05-23T13:03:42;102606.16;;;23.79;33.84
74594;BME280;63097;51.872;4.460;2023-05-23T13:06:07;102613.88;;;24.78;32.08
74594;BME280;63097;51.872;4.460;2023-05-23T13:08:32;102618.94;;;24.81;32.14
74594;BME280;63097;51.872;4.460;2023-05-23T13:10:58;102608.44;;;25.01;31.06